sensor_id;sensor_type;location;lat;lon;timestamp;temperature;humidity
71291;DHT22;59073;51.994;4.448;2023-02-05T00:01:56;10.46;79.38
71291;DHT22;59073;51.994;4.448;2023-02-05T00:04:21;10.42;79.14
71291;DHT22;59073;51.994;4.448;2023-02-05T00:06:47;10.37;79.28
71291;DHT22;59073;51.994;4.448;2023-02-05T00:09:13;10.29;79.66
71291;DHT22;59073;51.994;4.448;2023-02-05T00:11:39;10.35;79.86
71291;DHT22;59073;51.994;4.448;2023-02-05T00:14:04;10.38;79.76
71291;DHT22;59073;51.994;4.448;2023-02-05T00:16:30;10.45;79.21
71291;DHT22;59073;51.994;4.448;2023-02-05T00:18:55;10.38;79.42
71291;DHT22;59073;51.994;4.448;2023-02-05T00:21:22;10.28;79.46
71291;DHT22;59073;51.994;4.448;2023-02-05T00:23:48;10.22;79.43
71291;DHT22;59073;51.994;4.448;2023-02-05T00:26:14;10.15;79.63
71291;DHT22;59073;51.994;4.448;2023-02-05T00:28:40;10.15;79.38
71291;DHT22;59073;51.994;4.448;2023-02-05T00:31:11;10.10;79.28
71291;DHT22;59073;51.994;4.448;2023-02-05T00:33:37;10.00;79.24
71291;DHT22;59073;51.994;4.448;2023-02-05T00:36:03;9.98;79.28
71291;DHT22;59073;51.994;4.448;2023-02-05T00:38:29;10.01;79.13
71291;DHT22;59073;51.994;4.448;2023-02-05T00:40:54;10.00;78.87
71291;DHT22;59073;51.994;4.448;2023-02-05T00:43:20;10.00;78.60
71291;DHT22;59073;51.994;4.448;2023-02-05T00:45:46;9.94;78.18
71291;DHT22;59073;51.994;4.448;2023-02-05T00:48:11;9.97;78.26
71291;DHT22;59073;51.994;4.448;2023-02-05T00:50:37;9.90;77.93
71291;DHT22;59073;51.994;4.448;2023-02-05T00:53:03;9.91;77.66
71291;DHT22;59073;51.994;4.448;2023-02-05T00:55:29;9.94;77.58
71291;DHT22;59073;51.994;4.448;2023-02-05T00:57:54;9.94;77.70
71291;DHT22;59073;51.994;4.448;2023-02-05T01:00:20;9.90;77.45
71291;DHT22;59073;51.994;4.448;2023-02-05T01:02:45;9.90;77.09
71291;DHT22;59073;51.994;4.448;2023-02-05T01:05:11;9.94;77.10
71291;DHT22;59073;51.994;4.448;2023-02-05T01:07:37;9.93;76.70
71291;DHT22;59073;51.994;4.448;2023-02-05T01:10:03;9.97;76.75
71291;DHT22;59073;51.994;4.448;2023-02-05T01:12:29;9.98;76.71
71291;DHT22;59073;51.994;4.448;2023-02-05T01:14:58;9.88;76.47
71291;DHT22;59073;51.994;4.448;2023-02-05T01:17:23;9.80;76.66
71291;DHT22;59073;51.994;4.448;2023-02-05T01:19:49;9.84;76.70
71291;DHT22;59073;51.994;4.448;2023-02-05T01:22:14;9.77;76.87
71291;DHT22;59073;51.994;4.448;2023-02-05T01:24:40;9.71;77.11
71291;DHT22;59073;51.994;4.448;2023-02-05T01:27:05;9.69;77.17
71291;DHT22;59073;51.994;4.448;2023-02-05T01:29:31;9.69;77.41
71291;DHT22;59073;51.994;4.448;2023-02-05T01:31:56;9.66;77.58
71291;DHT22;59073;51.994;4.448;2023-02-05T01:34:21;9.61;77.64
71291;DHT22;59073;51.994;4.448;2023-02-05T01:36:47;9.63;77.72
71291;DHT22;59073;51.994;4.448;2023-02-05T01:39:13;9.61;77.47
71291;DHT22;59073;51.994;4.448;2023-02-05T01:41:39;9.59;77.65
71291;DHT22;59073;51.994;4.448;2023-02-05T01:44:16;9.54;77.74
71291;DHT22;59073;51.994;4.448;2023-02-05T01:46:46;9.61;77.53
71291;DHT22;59073;51.994;4.448;2023-02-05T01:49:22;9.60;77.48
71291;DHT22;59073;51.994;4.448;2023-02-05T01:51:50;9.57;77.86
71291;DHT22;59073;51.994;4.448;2023-02-05T01:54:20;9.60;77.47
71291;DHT22;59073;51.994;4.448;2023-02-05T01:57:01;9.69;77.19
71291;DHT22;59073;51.994;4.448;2023-02-05T01:59:33;9.71;77.33
71291;DHT22;59073;51.994;4.448;2023-02-05T02:01:59;9.76;76.93
71291;DHT22;59073;51.994;4.448;2023-02-05T02:04:36;9.66;77.26
71291;DHT22;59073;51.994;4.448;2023-02-05T02:07:03;9.56;77.88
71291;DHT22;59073;51.994;4.448;2023-02-05T02:09:28;9.51;77.99
71291;DHT22;59073;51.994;4.448;2023-02-05T02:11:58;9.53;78.35
71291;DHT22;59073;51.994;4.448;2023-02-05T02:14:27;9.61;77.85
71291;DHT22;59073;51.994;4.448;2023-02-05T02:16:56;9.74;77.43
71291;DHT22;59073;51.994;4.448;2023-02-05T02:19:43;9.80;77.35
71291;DHT22;59073;51.994;4.448;2023-02-05T02:28:10;9.60;78.28
71291;DHT22;59073;51.994;4.448;2023-02-05T02:30:58;9.66;78.41
71291;DHT22;59073;51.994;4.448;2023-02-05T02:41:30;9.63;78.72
71291;DHT22;59073;51.994;4.448;2023-02-05T02:44:47;9.71;78.81
71291;DHT22;59073;51.994;4.448;2023-02-05T02:46:58;9.67;78.69
71291;DHT22;59073;51.994;4.448;2023-02-05T02:49:43;9.64;78.92
71291;DHT22;59073;51.994;4.448;2023-02-05T02:52:14;9.54;79.17
71291;DHT22;59073;51.994;4.448;2023-02-05T02:54:46;9.50;79.55
71291;DHT22;59073;51.994;4.448;2023-02-05T02:57:14;9.54;79.34
71291;DHT22;59073;51.994;4.448;2023-02-05T02:59:45;9.49;79.53
71291;DHT22;59073;51.994;4.448;2023-02-05T03:02:14;9.38;79.94
71291;DHT22;59073;51.994;4.448;2023-02-05T03:05:02;9.36;79.97
71291;DHT22;59073;51.994;4.448;2023-02-05T03:07:51;9.32;80.50
71291;DHT22;59073;51.994;4.448;2023-02-05T03:10:25;9.30;80.61
71291;DHT22;59073;51.994;4.448;2023-02-05T03:12:54;9.19;80.87
71291;DHT22;59073;51.994;4.448;2023-02-05T03:15:20;9.25;80.95
71291;DHT22;59073;51.994;4.448;2023-02-05T03:17:46;9.23;81.18
71291;DHT22;59073;51.994;4.448;2023-02-05T03:20:20;9.26;81.26
71291;DHT22;59073;51.994;4.448;2023-02-05T03:22:46;9.20;81.65
71291;DHT22;59073;51.994;4.448;2023-02-05T03:25:12;9.18;82.20
71291;DHT22;59073;51.994;4.448;2023-02-05T03:27:39;9.19;82.57
71291;DHT22;59073;51.994;4.448;2023-02-05T03:30:06;9.11;83.07
71291;DHT22;59073;51.994;4.448;2023-02-05T03:36:07;9.14;83.78
71291;DHT22;59073;51.994;4.448;2023-02-05T03:39:07;9.14;84.04
71291;DHT22;59073;51.994;4.448;2023-02-05T03:47:34;8.95;85.19
71291;DHT22;59073;51.994;4.448;2023-02-05T03:52:58;8.95;85.56
71291;DHT22;59073;51.994;4.448;2023-02-05T03:55:33;8.91;85.55
71291;DHT22;59073;51.994;4.448;2023-02-05T03:58:09;8.93;85.67
71291;DHT22;59073;51.994;4.448;2023-02-05T04:00:38;8.89;85.71
71291;DHT22;59073;51.994;4.448;2023-02-05T04:03:05;8.89;85.89
71291;DHT22;59073;51.994;4.448;2023-02-05T04:05:30;8.93;85.97
71291;DHT22;59073;51.994;4.448;2023-02-05T04:07:56;8.98;85.83
71291;DHT22;59073;51.994;4.448;2023-02-05T04:10:21;9.07;85.65
71291;DHT22;59073;51.994;4.448;2023-02-05T04:12:47;9.04;85.77
71291;DHT22;59073;51.994;4.448;2023-02-05T04:15:12;9.02;85.79
71291;DHT22;59073;51.994;4.448;2023-02-05T04:17:38;8.89;86.20
71291;DHT22;59073;51.994;4.448;2023-02-05T04:20:05;8.81;86.86
71291;DHT22;59073;51.994;4.448;2023-02-05T04:22:31;8.77;87.10
71291;DHT22;59073;51.994;4.448;2023-02-05T04:24:57;8.46;87.44
71291;DHT22;59073;51.994;4.448;2023-02-05T04:27:22;8.30;87.79
71291;DHT22;59073;51.994;4.448;2023-02-05T04:29:47;8.23;87.98
71291;DHT22;59073;51.994;4.448;2023-02-05T04:32:13;8.07;87.89
71291;DHT22;59073;51.994;4.448;2023-02-05T04:34:39;8.02;88.23
71291;DHT22;59073;51.994;4.448;2023-02-05T04:37:04;7.95;88.40
71291;DHT22;59073;51.994;4.448;2023-02-05T04:39:29;7.85;88.32
71291;DHT22;59073;51.994;4.448;2023-02-05T04:41:55;7.76;87.89
71291;DHT22;59073;51.994;4.448;2023-02-05T04:44:20;7.68;88.28
71291;DHT22;59073;51.994;4.448;2023-02-05T04:46:46;7.76;88.43
71291;DHT22;59073;51.994;4.448;2023-02-05T04:49:11;7.72;88.24
71291;DHT22;59073;51.994;4.448;2023-02-05T04:51:37;7.64;88.16
71291;DHT22;59073;51.994;4.448;2023-02-05T04:54:02;7.61;87.69
71291;DHT22;59073;51.994;4.448;2023-02-05T04:56:28;7.61;87.96
71291;DHT22;59073;51.994;4.448;2023-02-05T04:58:53;7.55;87.23
71291;DHT22;59073;51.994;4.448;2023-02-05T05:01:21;7.55;87.72
71291;DHT22;59073;51.994;4.448;2023-02-05T05:03:47;7.57;87.16
71291;DHT22;59073;51.994;4.448;2023-02-05T05:06:14;7.59;86.85
71291;DHT22;59073;51.994;4.448;2023-02-05T05:08:40;7.55;86.20
71291;DHT22;59073;51.994;4.448;2023-02-05T05:11:12;7.59;86.01
71291;DHT22;59073;51.994;4.448;2023-02-05T05:13:38;7.52;84.78
71291;DHT22;59073;51.994;4.448;2023-02-05T05:16:04;7.51;84.16
71291;DHT22;59073;51.994;4.448;2023-02-05T05:18:30;7.48;83.84
71291;DHT22;59073;51.994;4.448;2023-02-05T05:20:56;7.51;84.45
71291;DHT22;59073;51.994;4.448;2023-02-05T05:23:22;7.45;82.68
71291;DHT22;59073;51.994;4.448;2023-02-05T05:25:48;7.40;83.04
71291;DHT22;59073;51.994;4.448;2023-02-05T05:28:15;7.31;82.42
71291;DHT22;59073;51.994;4.448;2023-02-05T05:30:43;7.30;81.85
71291;DHT22;59073;51.994;4.448;2023-02-05T05:33:10;7.18;81.83
71291;DHT22;59073;51.994;4.448;2023-02-05T05:35:35;7.16;81.34
71291;DHT22;59073;51.994;4.448;2023-02-05T05:38:01;7.08;81.36
71291;DHT22;59073;51.994;4.448;2023-02-05T05:40:28;7.04;81.05
71291;DHT22;59073;51.994;4.448;2023-02-05T05:43:14;7.03;80.65
71291;DHT22;59073;51.994;4.448;2023-02-05T05:45:59;7.11;80.73
71291;DHT22;59073;51.994;4.448;2023-02-05T05:48:25;7.11;80.02
71291;DHT22;59073;51.994;4.448;2023-02-05T05:50:50;7.16;80.33
71291;DHT22;59073;51.994;4.448;2023-02-05T05:53:15;7.23;80.55
71291;DHT22;59073;51.994;4.448;2023-02-05T05:55:41;7.24;80.59
71291;DHT22;59073;51.994;4.448;2023-02-05T05:58:07;7.30;80.45
71291;DHT22;59073;51.994;4.448;2023-02-05T06:00:33;7.26;80.65
71291;DHT22;59073;51.994;4.448;2023-02-05T06:02:59;7.27;81.06
71291;DHT22;59073;51.994;4.448;2023-02-05T06:05:24;7.31;79.44
71291;DHT22;59073;51.994;4.448;2023-02-05T06:07:50;7.34;78.21
71291;DHT22;59073;51.994;4.448;2023-02-05T06:10:15;7.40;77.62
71291;DHT22;59073;51.994;4.448;2023-02-05T06:12:41;7.37;78.79
71291;DHT22;59073;51.994;4.448;2023-02-05T06:15:06;7.26;80.04
71291;DHT22;59073;51.994;4.448;2023-02-05T06:17:32;7.20;80.89
71291;DHT22;59073;51.994;4.448;2023-02-05T06:19:57;7.11;82.55
71291;DHT22;59073;51.994;4.448;2023-02-05T06:22:23;7.11;82.29
71291;DHT22;59073;51.994;4.448;2023-02-05T06:24:48;7.13;81.76
71291;DHT22;59073;51.994;4.448;2023-02-05T06:27:13;7.23;82.00
71291;DHT22;59073;51.994;4.448;2023-02-05T06:29:39;7.24;81.49
71291;DHT22;59073;51.994;4.448;2023-02-05T06:32:04;7.27;80.84
71291;DHT22;59073;51.994;4.448;2023-02-05T06:34:30;7.30;80.76
71291;DHT22;59073;51.994;4.448;2023-02-05T06:36:55;7.37;80.10
71291;DHT22;59073;51.994;4.448;2023-02-05T06:39:20;7.34;79.76
71291;DHT22;59073;51.994;4.448;2023-02-05T06:41:46;7.38;79.22
71291;DHT22;59073;51.994;4.448;2023-02-05T06:44:12;7.38;79.29
71291;DHT22;59073;51.994;4.448;2023-02-05T06:46:37;7.40;79.13
71291;DHT22;59073;51.994;4.448;2023-02-05T06:49:03;7.38;79.15
71291;DHT22;59073;51.994;4.448;2023-02-05T06:51:28;7.41;79.27
71291;DHT22;59073;51.994;4.448;2023-02-05T06:53:53;7.44;78.98
71291;DHT22;59073;51.994;4.448;2023-02-05T06:56:24;7.44;79.55
71291;DHT22;59073;51.994;4.448;2023-02-05T06:58:49;7.44;79.53
71291;DHT22;59073;51.994;4.448;2023-02-05T07:01:15;7.43;79.33
71291;DHT22;59073;51.994;4.448;2023-02-05T07:03:40;7.41;78.72
71291;DHT22;59073;51.994;4.448;2023-02-05T07:06:06;7.43;79.12
71291;DHT22;59073;51.994;4.448;2023-02-05T07:08:33;7.45;79.24
71291;DHT22;59073;51.994;4.448;2023-02-05T07:10:59;7.41;79.11
71291;DHT22;59073;51.994;4.448;2023-02-05T07:13:25;7.40;78.91
71291;DHT22;59073;51.994;4.448;2023-02-05T07:15:52;7.37;79.15
71291;DHT22;59073;51.994;4.448;2023-02-05T07:18:17;7.40;79.42
71291;DHT22;59073;51.994;4.448;2023-02-05T07:20:43;7.38;79.50
71291;DHT22;59073;51.994;4.448;2023-02-05T07:23:08;7.43;79.15
71291;DHT22;59073;51.994;4.448;2023-02-05T07:25:34;7.48;79.38
71291;DHT22;59073;51.994;4.448;2023-02-05T07:28:07;7.51;79.05
71291;DHT22;59073;51.994;4.448;2023-02-05T07:30:36;7.47;79.45
71291;DHT22;59073;51.994;4.448;2023-02-05T07:33:01;7.38;79.92
71291;DHT22;59073;51.994;4.448;2023-02-05T07:35:35;7.34;80.55
71291;DHT22;59073;51.994;4.448;2023-02-05T07:38:01;7.32;80.16
71291;DHT22;59073;51.994;4.448;2023-02-05T07:40:26;7.32;80.07
71291;DHT22;59073;51.994;4.448;2023-02-05T07:42:52;7.35;79.65
71291;DHT22;59073;51.994;4.448;2023-02-05T07:45:17;7.41;79.68
71291;DHT22;59073;51.994;4.448;2023-02-05T07:47:56;7.44;79.87
71291;DHT22;59073;51.994;4.448;2023-02-05T07:50:43;7.50;79.19
71291;DHT22;59073;51.994;4.448;2023-02-05T07:53:09;7.51;78.79
71291;DHT22;59073;51.994;4.448;2023-02-05T07:55:34;7.57;78.26
71291;DHT22;59073;51.994;4.448;2023-02-05T07:58:00;7.62;78.08
71291;DHT22;59073;51.994;4.448;2023-02-05T08:00:25;7.69;77.50
71291;DHT22;59073;51.994;4.448;2023-02-05T08:02:51;7.74;78.15
71291;DHT22;59073;51.994;4.448;2023-02-05T08:05:16;7.76;76.57
71291;DHT22;59073;51.994;4.448;2023-02-05T08:07:41;7.76;77.53
71291;DHT22;59073;51.994;4.448;2023-02-05T08:10:13;7.78;76.48
71291;DHT22;59073;51.994;4.448;2023-02-05T08:12:43;7.79;76.74
71291;DHT22;59073;51.994;4.448;2023-02-05T08:15:09;7.85;75.91
71291;DHT22;59073;51.994;4.448;2023-02-05T08:17:35;7.86;75.80
71291;DHT22;59073;51.994;4.448;2023-02-05T08:20:00;7.95;76.42
71291;DHT22;59073;51.994;4.448;2023-02-05T08:22:36;7.88;76.36
71291;DHT22;59073;51.994;4.448;2023-02-05T08:25:10;7.92;76.16
71291;DHT22;59073;51.994;4.448;2023-02-05T08:30:08;8.03;75.87
71291;DHT22;59073;51.994;4.448;2023-02-05T08:32:34;8.13;75.52
71291;DHT22;59073;51.994;4.448;2023-02-05T08:34:59;8.12;74.82
71291;DHT22;59073;51.994;4.448;2023-02-05T08:37:26;7.99;75.84
71291;DHT22;59073;51.994;4.448;2023-02-05T08:39:52;8.05;76.01
71291;DHT22;59073;51.994;4.448;2023-02-05T08:42:17;8.00;75.48
71291;DHT22;59073;51.994;4.448;2023-02-05T08:44:43;8.03;74.50
71291;DHT22;59073;51.994;4.448;2023-02-05T08:47:09;8.10;74.47
71291;DHT22;59073;51.994;4.448;2023-02-05T08:49:34;8.06;75.03
71291;DHT22;59073;51.994;4.448;2023-02-05T08:51:59;8.09;74.94
71291;DHT22;59073;51.994;4.448;2023-02-05T08:54:25;8.05;75.88
71291;DHT22;59073;51.994;4.448;2023-02-05T08:56:51;7.98;75.18
71291;DHT22;59073;51.994;4.448;2023-02-05T08:59:18;8.02;75.40
71291;DHT22;59073;51.994;4.448;2023-02-05T09:01:44;8.03;75.05
71291;DHT22;59073;51.994;4.448;2023-02-05T09:04:13;8.06;75.19
71291;DHT22;59073;51.994;4.448;2023-02-05T09:06:39;8.19;74.89
71291;DHT22;59073;51.994;4.448;2023-02-05T09:09:05;8.25;74.68
71291;DHT22;59073;51.994;4.448;2023-02-05T09:11:30;8.16;75.00
71291;DHT22;59073;51.994;4.448;2023-02-05T09:13:56;8.16;75.22
71291;DHT22;59073;51.994;4.448;2023-02-05T09:16:22;8.13;74.57
71291;DHT22;59073;51.994;4.448;2023-02-05T09:18:48;8.19;75.25
71291;DHT22;59073;51.994;4.448;2023-02-05T09:21:13;8.12;75.25
71291;DHT22;59073;51.994;4.448;2023-02-05T09:23:39;8.22;75.19
71291;DHT22;59073;51.994;4.448;2023-02-05T09:26:05;8.22;75.36
71291;DHT22;59073;51.994;4.448;2023-02-05T09:28:32;8.17;74.21
71291;DHT22;59073;51.994;4.448;2023-02-05T09:30:58;8.26;75.07
71291;DHT22;59073;51.994;4.448;2023-02-05T09:33:23;8.27;74.98
71291;DHT22;59073;51.994;4.448;2023-02-05T09:35:48;8.22;74.62
71291;DHT22;59073;51.994;4.448;2023-02-05T09:38:15;8.33;74.59
71291;DHT22;59073;51.994;4.448;2023-02-05T09:41:07;8.40;74.63
71291;DHT22;59073;51.994;4.448;2023-02-05T09:46:19;8.33;75.83
71291;DHT22;59073;51.994;4.448;2023-02-05T09:49:01;8.40;75.19
71291;DHT22;59073;51.994;4.448;2023-02-05T09:51:35;8.53;75.38
71291;DHT22;59073;51.994;4.448;2023-02-05T09:54:24;8.58;75.41
71291;DHT22;59073;51.994;4.448;2023-02-05T09:57:03;8.57;74.11
71291;DHT22;59073;51.994;4.448;2023-02-05T09:59:43;8.68;74.98
71291;DHT22;59073;51.994;4.448;2023-02-05T10:05:02;8.68;73.91
71291;DHT22;59073;51.994;4.448;2023-02-05T10:07:48;8.77;74.07
71291;DHT22;59073;51.994;4.448;2023-02-05T10:10:25;8.70;73.41
71291;DHT22;59073;51.994;4.448;2023-02-05T10:21:30;8.75;73.69
71291;DHT22;59073;51.994;4.448;2023-02-05T10:26:58;8.61;74.22
71291;DHT22;59073;51.994;4.448;2023-02-05T10:29:49;8.50;74.23
71291;DHT22;59073;51.994;4.448;2023-02-05T10:34:59;8.46;74.07
71291;DHT22;59073;51.994;4.448;2023-02-05T10:37:53;8.51;74.27
71291;DHT22;59073;51.994;4.448;2023-02-05T10:40:29;8.51;73.70
71291;DHT22;59073;51.994;4.448;2023-02-05T10:43:16;8.54;74.41
71291;DHT22;59073;51.994;4.448;2023-02-05T10:45:42;8.65;73.96
71291;DHT22;59073;51.994;4.448;2023-02-05T10:51:00;8.47;74.37
71291;DHT22;59073;51.994;4.448;2023-02-05T10:53:28;8.65;74.16
71291;DHT22;59073;51.994;4.448;2023-02-05T10:55:56;8.60;73.62
71291;DHT22;59073;51.994;4.448;2023-02-05T11:01:19;8.84;73.05
71291;DHT22;59073;51.994;4.448;2023-02-05T11:03:53;8.87;72.70
71291;DHT22;59073;51.994;4.448;2023-02-05T11:06:22;8.81;73.19
71291;DHT22;59073;51.994;4.448;2023-02-05T11:12:25;8.81;72.01
71291;DHT22;59073;51.994;4.448;2023-02-05T11:18:23;8.82;72.78
71291;DHT22;59073;51.994;4.448;2023-02-05T11:21:06;8.71;72.82
71291;DHT22;59073;51.994;4.448;2023-02-05T11:23:41;8.74;71.98
71291;DHT22;59073;51.994;4.448;2023-02-05T11:26:20;9.09;72.55
71291;DHT22;59073;51.994;4.448;2023-02-05T11:28:46;9.16;71.73
71291;DHT22;59073;51.994;4.448;2023-02-05T11:31:28;9.05;71.70
71291;DHT22;59073;51.994;4.448;2023-02-05T11:34:14;8.98;71.91
71291;DHT22;59073;51.994;4.448;2023-02-05T11:36:52;8.81;71.86
71291;DHT22;59073;51.994;4.448;2023-02-05T11:41:53;8.67;72.14
71291;DHT22;59073;51.994;4.448;2023-02-05T11:44:29;8.89;72.26
71291;DHT22;59073;51.994;4.448;2023-02-05T11:47:01;8.93;71.70
71291;DHT22;59073;51.994;4.448;2023-02-05T11:49:31;8.93;71.16
71291;DHT22;59073;51.994;4.448;2023-02-05T11:59:23;9.11;72.00
71291;DHT22;59073;51.994;4.448;2023-02-05T12:03:30;9.07;71.00
71291;DHT22;59073;51.994;4.448;2023-02-05T12:20:01;8.98;71.20
71291;DHT22;59073;51.994;4.448;2023-02-05T12:23:48;8.92;70.22
71291;DHT22;59073;51.994;4.448;2023-02-05T12:26:36;9.11;70.39
71291;DHT22;59073;51.994;4.448;2023-02-05T12:39:42;9.15;70.05
71291;DHT22;59073;51.994;4.448;2023-02-05T12:42:44;9.11;70.53
71291;DHT22;59073;51.994;4.448;2023-02-05T13:12:09;9.22;69.78
71291;DHT22;59073;51.994;4.448;2023-02-05T13:15:17;9.05;69.67
71291;DHT22;59073;51.994;4.448;2023-02-05T13:39:15;9.04;71.02
71291;DHT22;59073;51.994;4.448;2023-02-05T14:00:38;8.99;71.39
71291;DHT22;59073;51.994;4.448;2023-02-05T14:03:29;9.04;71.44
71291;DHT22;59073;51.994;4.448;2023-02-05T14:06:53;9.02;71.12
71291;DHT22;59073;51.994;4.448;2023-02-05T14:09:07;9.02;71.20
71291;DHT22;59073;51.994;4.448;2023-02-05T14:11:58;9.07;71.32
71291;DHT22;59073;51.994;4.448;2023-02-05T14:14:30;8.98;71.52
71291;DHT22;59073;51.994;4.448;2023-02-05T14:16:58;8.91;71.33
71291;DHT22;59073;51.994;4.448;2023-02-05T14:22:03;8.79;72.00
71291;DHT22;59073;51.994;4.448;2023-02-05T14:24:47;8.93;72.10
71291;DHT22;59073;51.994;4.448;2023-02-05T14:29:51;8.85;72.03
71291;DHT22;59073;51.994;4.448;2023-02-05T14:35:33;8.71;71.13
71291;DHT22;59073;51.994;4.448;2023-02-05T14:38:23;8.68;71.78
71291;DHT22;59073;51.994;4.448;2023-02-05T14:41:43;8.74;71.94
71291;DHT22;59073;51.994;4.448;2023-02-05T14:44:04;8.74;72.09
71291;DHT22;59073;51.994;4.448;2023-02-05T14:46:36;8.81;71.88
71291;DHT22;59073;51.994;4.448;2023-02-05T14:49:07;8.79;71.70
71291;DHT22;59073;51.994;4.448;2023-02-05T14:51:52;8.81;71.84
71291;DHT22;59073;51.994;4.448;2023-02-05T14:54:29;8.74;71.97
71291;DHT22;59073;51.994;4.448;2023-02-05T15:02:45;8.81;71.62
71291;DHT22;59073;51.994;4.448;2023-02-05T15:19:33;8.53;72.28
71291;DHT22;59073;51.994;4.448;2023-02-05T15:24:53;8.56;72.38
71291;DHT22;59073;51.994;4.448;2023-02-05T15:27:34;8.50;72.02
71291;DHT22;59073;51.994;4.448;2023-02-05T15:30:19;8.34;72.03
71291;DHT22;59073;51.994;4.448;2023-02-05T15:33:01;8.37;71.89
71291;DHT22;59073;51.994;4.448;2023-02-05T15:35:43;8.34;71.69
71291;DHT22;59073;51.994;4.448;2023-02-05T15:38:40;8.36;71.60
71291;DHT22;59073;51.994;4.448;2023-02-05T15:42:35;8.41;72.00
71291;DHT22;59073;51.994;4.448;2023-02-05T15:44:48;8.33;72.92
71291;DHT22;59073;51.994;4.448;2023-02-05T15:47:25;8.26;73.26
71291;DHT22;59073;51.994;4.448;2023-02-05T15:49:59;8.34;73.41
71291;DHT22;59073;51.994;4.448;2023-02-05T15:52:30;8.16;73.66
71291;DHT22;59073;51.994;4.448;2023-02-05T15:55:10;8.17;74.13
71291;DHT22;59073;51.994;4.448;2023-02-05T15:57:51;8.16;74.38
71291;DHT22;59073;51.994;4.448;2023-02-05T16:00:28;8.10;74.40
71291;DHT22;59073;51.994;4.448;2023-02-05T16:03:33;8.02;74.61
71291;DHT22;59073;51.994;4.448;2023-02-05T16:06:27;8.00;74.83
71291;DHT22;59073;51.994;4.448;2023-02-05T16:09:34;8.02;74.78
71291;DHT22;59073;51.994;4.448;2023-02-05T16:12:29;7.95;74.94
71291;DHT22;59073;51.994;4.448;2023-02-05T16:17:55;7.88;75.26
71291;DHT22;59073;51.994;4.448;2023-02-05T16:20:35;7.83;75.68
71291;DHT22;59073;51.994;4.448;2023-02-05T16:26:49;7.71;75.89
71291;DHT22;59073;51.994;4.448;2023-02-05T16:29:31;7.72;75.95
71291;DHT22;59073;51.994;4.448;2023-02-05T16:32:47;7.65;76.32
71291;DHT22;59073;51.994;4.448;2023-02-05T16:35:38;7.61;76.39
71291;DHT22;59073;51.994;4.448;2023-02-05T16:38:43;7.57;76.51
71291;DHT22;59073;51.994;4.448;2023-02-05T16:41:27;7.54;76.78
71291;DHT22;59073;51.994;4.448;2023-02-05T16:44:24;7.45;76.93
71291;DHT22;59073;51.994;4.448;2023-02-05T16:47:25;7.47;77.04
71291;DHT22;59073;51.994;4.448;2023-02-05T16:49:49;7.43;77.06
71291;DHT22;59073;51.994;4.448;2023-02-05T16:52:34;7.45;77.05
71291;DHT22;59073;51.994;4.448;2023-02-05T16:55:06;7.44;76.97
71291;DHT22;59073;51.994;4.448;2023-02-05T16:57:53;7.45;76.94
71291;DHT22;59073;51.994;4.448;2023-02-05T17:00:24;7.40;77.14
71291;DHT22;59073;51.994;4.448;2023-02-05T17:03:12;7.38;77.23
71291;DHT22;59073;51.994;4.448;2023-02-05T17:05:41;7.35;77.48
71291;DHT22;59073;51.994;4.448;2023-02-05T17:08:10;7.31;77.72
71291;DHT22;59073;51.994;4.448;2023-02-05T17:10:54;7.24;77.96
71291;DHT22;59073;51.994;4.448;2023-02-05T17:13:43;7.26;78.17
71291;DHT22;59073;51.994;4.448;2023-02-05T17:16:27;7.23;78.25
71291;DHT22;59073;51.994;4.448;2023-02-05T17:18:58;7.30;78.34
71291;DHT22;59073;51.994;4.448;2023-02-05T17:23:52;7.20;78.63
71291;DHT22;59073;51.994;4.448;2023-02-05T17:26:19;7.21;78.51
71291;DHT22;59073;51.994;4.448;2023-02-05T17:28:51;7.20;78.49
71291;DHT22;59073;51.994;4.448;2023-02-05T17:31:17;7.27;78.31
71291;DHT22;59073;51.994;4.448;2023-02-05T17:33:42;7.17;78.48
71291;DHT22;59073;51.994;4.448;2023-02-05T17:36:15;7.16;78.57
71291;DHT22;59073;51.994;4.448;2023-02-05T17:38:42;7.20;78.40
71291;DHT22;59073;51.994;4.448;2023-02-05T17:41:14;7.21;78.49
71291;DHT22;59073;51.994;4.448;2023-02-05T17:43:59;7.23;78.09
71291;DHT22;59073;51.994;4.448;2023-02-05T17:46:25;7.21;78.26
71291;DHT22;59073;51.994;4.448;2023-02-05T17:48:50;7.27;77.99
71291;DHT22;59073;51.994;4.448;2023-02-05T17:51:20;7.40;77.69
71291;DHT22;59073;51.994;4.448;2023-02-05T17:53:47;7.40;77.16
71291;DHT22;59073;51.994;4.448;2023-02-05T17:56:13;7.48;77.06
71291;DHT22;59073;51.994;4.448;2023-02-05T17:58:39;7.52;76.63
71291;DHT22;59073;51.994;4.448;2023-02-05T18:01:05;7.50;76.70
71291;DHT22;59073;51.994;4.448;2023-02-05T18:03:30;7.50;76.36
71291;DHT22;59073;51.994;4.448;2023-02-05T18:05:57;7.57;76.28
71291;DHT22;59073;51.994;4.448;2023-02-05T18:08:22;7.47;76.28
71291;DHT22;59073;51.994;4.448;2023-02-05T18:10:48;7.55;76.43
71291;DHT22;59073;51.994;4.448;2023-02-05T18:13:14;7.52;76.33
71291;DHT22;59073;51.994;4.448;2023-02-05T18:15:41;7.52;76.08
71291;DHT22;59073;51.994;4.448;2023-02-05T18:18:07;7.50;76.06
71291;DHT22;59073;51.994;4.448;2023-02-05T18:20:33;7.57;75.81
71291;DHT22;59073;51.994;4.448;2023-02-05T18:22:58;7.51;75.35
71291;DHT22;59073;51.994;4.448;2023-02-05T18:25:24;7.45;75.49
71291;DHT22;59073;51.994;4.448;2023-02-05T18:27:49;7.31;75.93
71291;DHT22;59073;51.994;4.448;2023-02-05T18:30:15;7.30;75.91
71291;DHT22;59073;51.994;4.448;2023-02-05T18:32:40;7.35;76.23
71291;DHT22;59073;51.994;4.448;2023-02-05T18:35:06;7.37;75.93
71291;DHT22;59073;51.994;4.448;2023-02-05T18:37:35;7.30;76.11
71291;DHT22;59073;51.994;4.448;2023-02-05T18:40:01;7.38;76.13
71291;DHT22;59073;51.994;4.448;2023-02-05T18:42:26;7.31;76.23
71291;DHT22;59073;51.994;4.448;2023-02-05T18:44:53;7.13;76.62
71291;DHT22;59073;51.994;4.448;2023-02-05T18:47:19;7.20;76.55
71291;DHT22;59073;51.994;4.448;2023-02-05T18:49:44;7.21;76.74
71291;DHT22;59073;51.994;4.448;2023-02-05T18:52:09;7.14;76.59
71291;DHT22;59073;51.994;4.448;2023-02-05T18:54:36;7.18;76.76
71291;DHT22;59073;51.994;4.448;2023-02-05T18:57:01;7.23;76.50
71291;DHT22;59073;51.994;4.448;2023-02-05T18:59:27;7.21;76.58
71291;DHT22;59073;51.994;4.448;2023-02-05T19:01:52;7.18;76.62
71291;DHT22;59073;51.994;4.448;2023-02-05T19:04:18;7.23;76.45
71291;DHT22;59073;51.994;4.448;2023-02-05T19:06:47;7.16;76.73
71291;DHT22;59073;51.994;4.448;2023-02-05T19:09:17;7.17;76.69
71291;DHT22;59073;51.994;4.448;2023-02-05T19:11:43;7.26;76.63
71291;DHT22;59073;51.994;4.448;2023-02-05T19:14:12;7.18;76.59
71291;DHT22;59073;51.994;4.448;2023-02-05T19:16:38;7.06;77.09
71291;DHT22;59073;51.994;4.448;2023-02-05T19:19:07;7.04;77.30
71291;DHT22;59073;51.994;4.448;2023-02-05T19:21:34;6.93;77.63
71291;DHT22;59073;51.994;4.448;2023-02-05T19:24:02;6.90;77.73
71291;DHT22;59073;51.994;4.448;2023-02-05T19:26:32;6.89;77.78
71291;DHT22;59073;51.994;4.448;2023-02-05T19:29:01;6.92;77.81
71291;DHT22;59073;51.994;4.448;2023-02-05T19:31:30;6.95;77.59
71291;DHT22;59073;51.994;4.448;2023-02-05T19:33:56;6.95;77.75
71291;DHT22;59073;51.994;4.448;2023-02-05T19:36:24;6.87;77.78